Blue Marlin — 9HA4605 — position and weather

sailwx.info

Track history (hours):
 
Tides and Currents Weather Stations Pressure Air Temp Water Temp Dewpoint Dewpoint Depression Visibility Wind Speed Wind Dir Waves Ship Positions

Blue Marlin

Last reported at 2018-Jun-25 02:00 UTC. Time now 2018-Jun-25 02:05 UTC.
Position N 37°40' W 009°32'.

Length 225 m; draft 8.2 m.

Type: Cargo ship. MMSI: 248314000.

Date/timePositionNaut miles runAvg speedWind from/ knotsBaromVisibWave heightAir tempDewpointWater temp
2018-Jun-25 02:00N 37°40' W 009°32'611.0
2018-Jun-25 01:30N 37°34' W 009°32'511.1
2018-Jun-25 01:00N 37°29' W 009°30'510.8
2018-Jun-25 00:30N 37°24' W 009°29'1910.6
2018-Jun-24 22:43N 37°05' W 009°23'410.3
2018-Jun-24 22:19N 37°01' W 009°22'710.0
2018-Jun-24 21:39N 36°55' W 009°20'4 9.8
2018-Jun-24 21:17N 36°52' W 009°18'3 9.8
2018-Jun-24 20:56N 36°49' W 009°15'4 9.7
2018-Jun-24 20:30N 36°46' W 009°11'5 9.5
2018-Jun-24 19:59N 36°44' W 009°06'5 9.4
2018-Jun-24 19:25N 36°42' W 008°60'5 9.3
2018-Jun-24 18:53N 36°40' W 008°54'5 9.7
2018-Jun-24 18:23N 36°39' W 008°48'12 9.8
2018-Jun-24 17:11N 36°35' W 008°34'12 9.3
2018-Jun-24 15:56N 36°32' W 008°20'5 9.3
2018-Jun-24 15:27N 36°30' W 008°15'34610.0
2018-Jun-23 05:00N 36°37' W 001°04'611.5
2018-Jun-23 04:30N 36°38' W 000°57'611.5
2018-Jun-23 03:59N 36°39' W 000°50'611.5
2018-Jun-23 03:30N 36°40' W 000°43'611.2
2018-Jun-23 02:58N 36°41' W 000°36'511.2
2018-Jun-23 02:30N 36°42' W 000°29'611.4
2018-Jun-23 01:56N 36°43' W 000°21'511.7
2018-Jun-23 01:30N 36°45' W 000°15'611.4
2018-Jun-23 00:58N 36°45' W 000°08'611.7
2018-Jun-23 00:28N 36°46' W 000°01'612.0
2018-Jun-23 00:00N 36°47' E 000°06'612.0
2018-Jun-22 23:30N 36°49' E 000°13'611.8
2018-Jun-22 23:00N 36°50' E 000°21'611.4
2018-Jun-22 22:30N 36°51' E 000°28'611.0
2018-Jun-22 21:59N 36°52' E 000°35'510.5
2018-Jun-22 21:30N 36°53' E 000°41'510.7
2018-Jun-22 21:00N 36°54' E 000°48'611.1
2018-Jun-22 20:30N 36°55' E 000°54'611.5
2018-Jun-22 20:00N 36°56' E 001°01'611.6
2018-Jun-22 19:30N 36°57' E 001°08'611.5
2018-Jun-22 19:00N 36°58' E 001°16'611.4
2018-Jun-22 18:30N 36°59' E 001°23'611.4
2018-Jun-22 18:00N 37°00' E 001°30'611.2
2018-Jun-22 17:30N 37°01' E 001°37'611.2
2018-Jun-22 17:00N 37°02' E 001°43'611.0
2018-Jun-22 16:30N 37°03' E 001°50'610.9
2018-Jun-22 16:00N 37°04' E 001°57'510.9
2018-Jun-22 15:30N 37°06' E 002°04'510.8
2018-Jun-22 15:00N 37°07' E 002°10'511.0
2018-Jun-22 14:30N 37°08' E 002°17'611.4
2018-Jun-22 14:00N 37°09' E 002°24'611.6
2018-Jun-22 13:28N 37°10' E 002°32'611.7
2018-Jun-22 12:55N 37°11' E 002°40'511.8
2018-Jun-22 12:30N 37°12' E 002°46'612.2
2018-Jun-22 11:59N 37°13' E 002°53'612.3
2018-Jun-22 11:30N 37°14' E 003°01'612.4
2018-Jun-22 11:00N 37°15' E 003°09'712.5
2018-Jun-22 10:26N 37°17' E 003°17'512.7
2018-Jun-22 10:00N 37°18' E 003°24'612.6
2018-Jun-22 09:30N 37°18' E 003°32'712.5
2018-Jun-22 08:58N 37°19' E 003°40'612.3
2018-Jun-22 08:30N 37°20' E 003°47'612.1
2018-Jun-22 07:59N 37°21' E 003°55'711.5
2018-Jun-22 07:21N 37°22' E 004°04'711.3
2018-Jun-22 06:42N 37°23' E 004°13'311.2
2018-Jun-22 06:25N 37°23' E 004°17'511.2
2018-Jun-22 06:00N 37°24' E 004°23'1511.1
2018-Jun-22 04:41N 37°26' E 004°41'211.0
2018-Jun-22 04:30N 37°26' E 004°44'610.6
2018-Jun-22 03:59N 37°27' E 004°51'510.4
2018-Jun-22 03:30N 37°27' E 004°57'510.4
2018-Jun-22 03:00N 37°28' E 005°03'510.5
2018-Jun-22 02:29N 37°29' E 005°10'510.7
2018-Jun-22 02:00N 37°29' E 005°17'610.8
2018-Jun-22 01:29N 37°30' E 005°24'611.2
2018-Jun-22 00:59N 37°31' E 005°31'511.3
2018-Jun-22 00:30N 37°32' E 005°37'611.4
2018-Jun-22 00:00N 37°32' E 005°45'611.6
2018-Jun-21 23:30N 37°33' E 005°52'611.4
2018-Jun-21 22:59N 37°34' E 005°59'511.4
2018-Jun-21 22:30N 37°34' E 006°06'2711.2
2018-Jun-21 20:07N 37°38' E 006°39'311.3
2018-Jun-21 19:52N 37°39' E 006°43'411.3
2018-Jun-21 19:30N 37°39' E 006°48'32211.0
2018-Jun-20 14:13N 36°44' E 013°27'511.5
2018-Jun-20 13:49N 36°42' E 013°32'411.7
2018-Jun-20 13:30N 36°40' E 013°36'611.6
2018-Jun-20 12:59N 36°38' E 013°43'611.7
2018-Jun-20 12:30N 36°36' E 013°50'611.5
2018-Jun-20 12:00N 36°34' E 013°56'510.5
2018-Jun-20 11:29N 36°31' E 014°02'510.2
2018-Jun-20 11:00N 36°29' E 014°08'510.3
2018-Jun-20 10:30N 36°27' E 014°14'  
2018-Jun-16 20:35N 31°39' E 032°05'1 9.3
2018-Jun-16 20:30N 31°39' E 032°06'8 9.5
2018-Jun-16 19:41N 31°33' E 032°12'5 9.6
2018-Jun-16 19:10N 31°30' E 032°17'210.0
2018-Jun-16 19:00N 31°30' E 032°19'5 9.8
2018-Jun-16 18:30N 31°28' E 032°24'5 9.6
2018-Jun-16 18:00N 31°23' E 032°23'5 9.5
2018-Jun-16 17:30N 31°18' E 032°22'5 9.1
2018-Jun-16 17:00N 31°14' E 032°21'3 6.9
2018-Jun-16 16:30N 31°11' E 032°20'5 9.1
2018-Jun-16 16:00N 31°06' E 032°19'610.0
2018-Jun-16 15:22N 30°60' E 032°19'  
Track history (hours):
 
Tides and Currents Weather Stations Pressure Air Temp Water Temp Dewpoint Dewpoint Depression Visibility Wind Speed Wind Dir Waves Ship Positions

Blue Marlin

Last reported at 2018-Jun-25 02:00 UTC. Time now 2018-Jun-25 02:05 UTC.
Position N 37°40' W 009°32'.

Length 225 m; draft 8.2 m.

Type: Cargo ship. MMSI: 248314000.

Date/timePositionNaut miles runAvg speedWind from/ knotsBaromVisibWave heightAir tempDewpointWater temp
2018-Jun-25 02:00N 37°40' W 009°32'611.0
2018-Jun-25 01:30N 37°34' W 009°32'511.1
2018-Jun-25 01:00N 37°29' W 009°30'510.8
2018-Jun-25 00:30N 37°24' W 009°29'1910.6
2018-Jun-24 22:43N 37°05' W 009°23'410.3
2018-Jun-24 22:19N 37°01' W 009°22'710.0
2018-Jun-24 21:39N 36°55' W 009°20'4 9.8
2018-Jun-24 21:17N 36°52' W 009°18'3 9.8
2018-Jun-24 20:56N 36°49' W 009°15'4 9.7
2018-Jun-24 20:30N 36°46' W 009°11'5 9.5
2018-Jun-24 19:59N 36°44' W 009°06'5 9.4
2018-Jun-24 19:25N 36°42' W 008°60'5 9.3
2018-Jun-24 18:53N 36°40' W 008°54'5 9.7
2018-Jun-24 18:23N 36°39' W 008°48'12 9.8
2018-Jun-24 17:11N 36°35' W 008°34'12 9.3
2018-Jun-24 15:56N 36°32' W 008°20'5 9.3
2018-Jun-24 15:27N 36°30' W 008°15'34610.0
2018-Jun-23 05:00N 36°37' W 001°04'611.5
2018-Jun-23 04:30N 36°38' W 000°57'611.5
2018-Jun-23 03:59N 36°39' W 000°50'611.5
2018-Jun-23 03:30N 36°40' W 000°43'611.2
2018-Jun-23 02:58N 36°41' W 000°36'511.2
2018-Jun-23 02:30N 36°42' W 000°29'611.4
2018-Jun-23 01:56N 36°43' W 000°21'511.7
2018-Jun-23 01:30N 36°45' W 000°15'611.4
2018-Jun-23 00:58N 36°45' W 000°08'611.7
2018-Jun-23 00:28N 36°46' W 000°01'612.0
2018-Jun-23 00:00N 36°47' E 000°06'612.0
2018-Jun-22 23:30N 36°49' E 000°13'611.8
2018-Jun-22 23:00N 36°50' E 000°21'611.4
2018-Jun-22 22:30N 36°51' E 000°28'611.0
2018-Jun-22 21:59N 36°52' E 000°35'510.5
2018-Jun-22 21:30N 36°53' E 000°41'510.7
2018-Jun-22 21:00N 36°54' E 000°48'611.1
2018-Jun-22 20:30N 36°55' E 000°54'611.5
2018-Jun-22 20:00N 36°56' E 001°01'611.6
2018-Jun-22 19:30N 36°57' E 001°08'611.5
2018-Jun-22 19:00N 36°58' E 001°16'611.4
2018-Jun-22 18:30N 36°59' E 001°23'611.4
2018-Jun-22 18:00N 37°00' E 001°30'611.2
2018-Jun-22 17:30N 37°01' E 001°37'611.2
2018-Jun-22 17:00N 37°02' E 001°43'611.0
2018-Jun-22 16:30N 37°03' E 001°50'610.9
2018-Jun-22 16:00N 37°04' E 001°57'510.9
2018-Jun-22 15:30N 37°06' E 002°04'510.8
2018-Jun-22 15:00N 37°07' E 002°10'511.0
2018-Jun-22 14:30N 37°08' E 002°17'611.4
2018-Jun-22 14:00N 37°09' E 002°24'611.6
2018-Jun-22 13:28N 37°10' E 002°32'611.7
2018-Jun-22 12:55N 37°11' E 002°40'511.8
2018-Jun-22 12:30N 37°12' E 002°46'612.2
2018-Jun-22 11:59N 37°13' E 002°53'612.3
2018-Jun-22 11:30N 37°14' E 003°01'612.4
2018-Jun-22 11:00N 37°15' E 003°09'712.5
2018-Jun-22 10:26N 37°17' E 003°17'512.7
2018-Jun-22 10:00N 37°18' E 003°24'612.6
2018-Jun-22 09:30N 37°18' E 003°32'712.5
2018-Jun-22 08:58N 37°19' E 003°40'612.3
2018-Jun-22 08:30N 37°20' E 003°47'612.1
2018-Jun-22 07:59N 37°21' E 003°55'711.5
2018-Jun-22 07:21N 37°22' E 004°04'711.3
2018-Jun-22 06:42N 37°23' E 004°13'311.2
2018-Jun-22 06:25N 37°23' E 004°17'511.2
2018-Jun-22 06:00N 37°24' E 004°23'1511.1
2018-Jun-22 04:41N 37°26' E 004°41'211.0
2018-Jun-22 04:30N 37°26' E 004°44'610.6
2018-Jun-22 03:59N 37°27' E 004°51'510.4
2018-Jun-22 03:30N 37°27' E 004°57'510.4
2018-Jun-22 03:00N 37°28' E 005°03'510.5
2018-Jun-22 02:29N 37°29' E 005°10'510.7
2018-Jun-22 02:00N 37°29' E 005°17'610.8
2018-Jun-22 01:29N 37°30' E 005°24'611.2
2018-Jun-22 00:59N 37°31' E 005°31'511.3
2018-Jun-22 00:30N 37°32' E 005°37'611.4
2018-Jun-22 00:00N 37°32' E 005°45'611.6
2018-Jun-21 23:30N 37°33' E 005°52'611.4
2018-Jun-21 22:59N 37°34' E 005°59'511.4
2018-Jun-21 22:30N 37°34' E 006°06'2711.2
2018-Jun-21 20:07N 37°38' E 006°39'311.3
2018-Jun-21 19:52N 37°39' E 006°43'411.3
2018-Jun-21 19:30N 37°39' E 006°48'32211.0
2018-Jun-20 14:13N 36°44' E 013°27'511.5
2018-Jun-20 13:49N 36°42' E 013°32'411.7
2018-Jun-20 13:30N 36°40' E 013°36'611.6
2018-Jun-20 12:59N 36°38' E 013°43'611.7
2018-Jun-20 12:30N 36°36' E 013°50'611.5
2018-Jun-20 12:00N 36°34' E 013°56'510.5
2018-Jun-20 11:29N 36°31' E 014°02'510.2
2018-Jun-20 11:00N 36°29' E 014°08'510.3
2018-Jun-20 10:30N 36°27' E 014°14'  
2018-Jun-16 20:35N 31°39' E 032°05'1 9.3
2018-Jun-16 20:30N 31°39' E 032°06'8 9.5
2018-Jun-16 19:41N 31°33' E 032°12'5 9.6
2018-Jun-16 19:10N 31°30' E 032°17'210.0
2018-Jun-16 19:00N 31°30' E 032°19'5 9.8
2018-Jun-16 18:30N 31°28' E 032°24'5 9.6
2018-Jun-16 18:00N 31°23' E 032°23'5 9.5
2018-Jun-16 17:30N 31°18' E 032°22'5 9.1
2018-Jun-16 17:00N 31°14' E 032°21'3 6.9
2018-Jun-16 16:30N 31°11' E 032°20'5 9.1
2018-Jun-16 16:00N 31°06' E 032°19'610.0
2018-Jun-16 15:22N 30°60' E 032°19'  

Dump ship's entire track history